Home

Weather

KSLC Current Conditions

KSLC 150559Z 33006KT 10SM SCT075 BKN085 OVC100 00/M03 A3015 RMK AO2 T00001033 VISNO NW RNWY $

KSLC Aviation Forecast

TAF AMD KSLC 150542Z 1506/1612 34006KT P6SM SCT060 BKN100 FM150700 15006KT P6SM SCT060 BKN100 FM151200 17006KT P6SM SCT100 SCT200 FM151900 33006KT P6SM SCT200 FM160300 15005KT P6SM SCT200


32° F
Overcast
Overcast

Chance of Snow
Friday
Chance of Snow
High 41°/Low 29°
30%
Clear
Saturday
Clear
High 45°/Low 29°
0%
Clear
Sunday
Clear
High 47°/Low 30°
0%
Chance of Rain
Monday
Chance of Rain
High 44°/Low 31°
30%
Partly Cloudy
Tuesday
Partly Cloudy
High 42°/Low 32°
10%
Mostly Cloudy
Wednesday
Mostly Cloudy
High 45°/Low 32°
20%